sensor_id;sensor_type;location;lat;lon;timestamp;P1;durP1;ratioP1;P2;durP2;ratioP2
20179;SDS011;10249;48.900;9.090;2023-03-12T00:00:12;11.10;;;10.70;;
20179;SDS011;10249;48.900;9.090;2023-03-12T00:02:40;11.30;;;10.90;;
20179;SDS011;10249;48.900;9.090;2023-03-12T00:05:07;11.40;;;11.00;;
20179;SDS011;10249;48.900;9.090;2023-03-12T00:07:35;11.43;;;11.03;;
20179;SDS011;10249;48.900;9.090;2023-03-12T00:10:03;11.30;;;10.90;;
20179;SDS011;10249;48.900;9.090;2023-03-12T00:12:30;11.03;;;10.63;;
20179;SDS011;10249;48.900;9.090;2023-03-12T00:14:57;11.30;;;10.90;;
20179;SDS011;10249;48.900;9.090;2023-03-12T00:17:27;11.30;;;10.90;;
20179;SDS011;10249;48.900;9.090;2023-03-12T00:19:54;11.70;;;11.30;;
20179;SDS011;10249;48.900;9.090;2023-03-12T00:22:21;11.27;;;10.87;;
20179;SDS011;10249;48.900;9.090;2023-03-12T00:24:49;12.20;;;11.73;;
20179;SDS011;10249;48.900;9.090;2023-03-12T00:27:17;11.20;;;10.80;;
20179;SDS011;10249;48.900;9.090;2023-03-12T00:29:44;11.30;;;10.90;;
20179;SDS011;10249;48.900;9.090;2023-03-12T00:32:11;11.10;;;10.70;;
20179;SDS011;10249;48.900;9.090;2023-03-12T00:34:39;11.10;;;10.70;;
20179;SDS011;10249;48.900;9.090;2023-03-12T00:37:06;11.13;;;10.73;;
20179;SDS011;10249;48.900;9.090;2023-03-12T00:39:34;11.17;;;10.77;;
20179;SDS011;10249;48.900;9.090;2023-03-12T00:42:01;11.30;;;10.90;;
20179;SDS011;10249;48.900;9.090;2023-03-12T00:44:28;11.30;;;10.90;;
20179;SDS011;10249;48.900;9.090;2023-03-12T00:46:55;11.50;;;11.10;;
20179;SDS011;10249;48.900;9.090;2023-03-12T00:49:22;11.30;;;10.90;;
20179;SDS011;10249;48.900;9.090;2023-03-12T00:51:50;11.37;;;10.97;;
20179;SDS011;10249;48.900;9.090;2023-03-12T00:54:18;11.93;;;11.53;;
20179;SDS011;10249;48.900;9.090;2023-03-12T00:56:45;11.43;;;11.03;;
20179;SDS011;10249;48.900;9.090;2023-03-12T00:59:12;11.40;;;11.00;;
20179;SDS011;10249;48.900;9.090;2023-03-12T01:01:39;11.40;;;11.00;;
20179;SDS011;10249;48.900;9.090;2023-03-12T01:04:06;11.50;;;11.10;;
20179;SDS011;10249;48.900;9.090;2023-03-12T01:06:33;11.60;;;11.20;;
20179;SDS011;10249;48.900;9.090;2023-03-12T01:09:02;11.87;;;11.47;;
20179;SDS011;10249;48.900;9.090;2023-03-12T01:11:30;11.80;;;11.40;;
20179;SDS011;10249;48.900;9.090;2023-03-12T01:13:57;11.90;;;11.50;;
20179;SDS011;10249;48.900;9.090;2023-03-12T01:16:25;11.70;;;11.30;;
20179;SDS011;10249;48.900;9.090;2023-03-12T01:18:54;11.60;;;11.20;;
20179;SDS011;10249;48.900;9.090;2023-03-12T01:21:21;11.70;;;11.30;;
20179;SDS011;10249;48.900;9.090;2023-03-12T01:23:48;11.90;;;11.50;;
20179;SDS011;10249;48.900;9.090;2023-03-12T01:26:16;11.53;;;11.13;;
20179;SDS011;10249;48.900;9.090;2023-03-12T01:28:44;11.80;;;11.40;;
20179;SDS011;10249;48.900;9.090;2023-03-12T01:31:12;12.57;;;12.10;;
20179;SDS011;10249;48.900;9.090;2023-03-12T01:33:40;11.40;;;11.00;;
20179;SDS011;10249;48.900;9.090;2023-03-12T01:36:12;11.37;;;10.97;;
20179;SDS011;10249;48.900;9.090;2023-03-12T01:38:41;10.90;;;10.50;;
20179;SDS011;10249;48.900;9.090;2023-03-12T01:41:08;12.27;;;11.77;;
20179;SDS011;10249;48.900;9.090;2023-03-12T01:43:37;11.00;;;10.60;;
20179;SDS011;10249;48.900;9.090;2023-03-12T01:48:56;12.57;;;12.07;;
20179;SDS011;10249;48.900;9.090;2023-03-12T01:51:24;11.10;;;10.70;;
20179;SDS011;10249;48.900;9.090;2023-03-12T01:53:52;11.60;;;11.20;;
20179;SDS011;10249;48.900;9.090;2023-03-12T01:56:22;11.63;;;11.23;;
20179;SDS011;10249;48.900;9.090;2023-03-12T01:58:52;11.50;;;11.10;;
20179;SDS011;10249;48.900;9.090;2023-03-12T02:01:20;11.87;;;11.47;;
20179;SDS011;10249;48.900;9.090;2023-03-12T02:03:47;11.43;;;11.03;;
20179;SDS011;10249;48.900;9.090;2023-03-12T02:06:17;11.63;;;11.23;;
20179;SDS011;10249;48.900;9.090;2023-03-12T02:08:46;11.90;;;11.50;;
20179;SDS011;10249;48.900;9.090;2023-03-12T02:11:14;11.80;;;11.40;;
20179;SDS011;10249;48.900;9.090;2023-03-12T02:13:41;11.87;;;11.47;;
20179;SDS011;10249;48.900;9.090;2023-03-12T02:16:10;11.77;;;11.37;;
20179;SDS011;10249;48.900;9.090;2023-03-12T02:18:37;11.90;;;11.50;;
20179;SDS011;10249;48.900;9.090;2023-03-12T02:21:09;11.80;;;11.40;;
20179;SDS011;10249;48.900;9.090;2023-03-12T02:23:40;11.77;;;11.37;;
20179;SDS011;10249;48.900;9.090;2023-03-12T02:26:09;12.00;;;11.60;;
20179;SDS011;10249;48.900;9.090;2023-03-12T02:28:38;11.97;;;11.57;;
20179;SDS011;10249;48.900;9.090;2023-03-12T02:31:08;11.80;;;11.40;;
20179;SDS011;10249;48.900;9.090;2023-03-12T02:33:36;11.90;;;11.50;;
20179;SDS011;10249;48.900;9.090;2023-03-12T02:36:04;11.80;;;11.40;;
20179;SDS011;10249;48.900;9.090;2023-03-12T02:38:33;11.90;;;11.50;;
20179;SDS011;10249;48.900;9.090;2023-03-12T02:41:01;11.80;;;11.40;;
20179;SDS011;10249;48.900;9.090;2023-03-12T02:43:31;11.70;;;11.30;;
20179;SDS011;10249;48.900;9.090;2023-03-12T02:45:58;11.60;;;11.20;;
20179;SDS011;10249;48.900;9.090;2023-03-12T02:48:25;11.20;;;10.80;;
20179;SDS011;10249;48.900;9.090;2023-03-12T02:50:52;11.50;;;11.10;;
20179;SDS011;10249;48.900;9.090;2023-03-12T02:53:19;11.13;;;10.73;;
20179;SDS011;10249;48.900;9.090;2023-03-12T02:55:46;11.50;;;11.10;;
20179;SDS011;10249;48.900;9.090;2023-03-12T02:58:13;11.30;;;10.90;;
20179;SDS011;10249;48.900;9.090;2023-03-12T03:00:42;11.17;;;10.77;;
20179;SDS011;10249;48.900;9.090;2023-03-12T03:03:09;11.20;;;10.80;;
20179;SDS011;10249;48.900;9.090;2023-03-12T03:05:36;11.00;;;10.60;;
20179;SDS011;10249;48.900;9.090;2023-03-12T03:08:03;11.20;;;10.80;;
20179;SDS011;10249;48.900;9.090;2023-03-12T03:10:31;11.40;;;11.00;;
20179;SDS011;10249;48.900;9.090;2023-03-12T03:12:58;11.03;;;10.63;;
20179;SDS011;10249;48.900;9.090;2023-03-12T03:15:25;10.97;;;10.57;;
20179;SDS011;10249;48.900;9.090;2023-03-12T03:17:53;11.00;;;10.60;;
20179;SDS011;10249;48.900;9.090;2023-03-12T03:20:20;11.20;;;10.80;;
20179;SDS011;10249;48.900;9.090;2023-03-12T03:22:48;11.67;;;11.27;;
20179;SDS011;10249;48.900;9.090;2023-03-12T03:25:15;11.37;;;10.97;;
20179;SDS011;10249;48.900;9.090;2023-03-12T03:27:46;11.10;;;10.70;;
20179;SDS011;10249;48.900;9.090;2023-03-12T03:30:13;11.20;;;10.80;;
20179;SDS011;10249;48.900;9.090;2023-03-12T03:32:41;11.20;;;10.80;;
20179;SDS011;10249;48.900;9.090;2023-03-12T03:35:10;11.80;;;11.40;;
20179;SDS011;10249;48.900;9.090;2023-03-12T03:37:37;11.13;;;10.73;;
20179;SDS011;10249;48.900;9.090;2023-03-12T03:40:04;11.00;;;10.60;;
20179;SDS011;10249;48.900;9.090;2023-03-12T03:42:35;11.20;;;10.80;;
20179;SDS011;10249;48.900;9.090;2023-03-12T03:45:03;11.23;;;10.83;;
20179;SDS011;10249;48.900;9.090;2023-03-12T03:47:30;11.23;;;10.83;;
20179;SDS011;10249;48.900;9.090;2023-03-12T03:49:58;11.17;;;10.77;;
20179;SDS011;10249;48.900;9.090;2023-03-12T03:52:26;11.43;;;11.03;;
20179;SDS011;10249;48.900;9.090;2023-03-12T03:54:53;11.70;;;11.30;;
20179;SDS011;10249;48.900;9.090;2023-03-12T03:57:21;11.50;;;11.10;;
20179;SDS011;10249;48.900;9.090;2023-03-12T03:59:48;11.50;;;11.10;;
20179;SDS011;10249;48.900;9.090;2023-03-12T04:02:15;11.60;;;11.20;;
20179;SDS011;10249;48.900;9.090;2023-03-12T04:04:42;11.43;;;11.03;;
20179;SDS011;10249;48.900;9.090;2023-03-12T04:07:09;11.60;;;11.20;;
20179;SDS011;10249;48.900;9.090;2023-03-12T04:09:38;11.90;;;11.50;;
20179;SDS011;10249;48.900;9.090;2023-03-12T04:12:05;11.43;;;11.03;;
20179;SDS011;10249;48.900;9.090;2023-03-12T04:14:32;11.60;;;11.20;;
20179;SDS011;10249;48.900;9.090;2023-03-12T04:16:59;11.63;;;11.23;;
20179;SDS011;10249;48.900;9.090;2023-03-12T04:19:26;11.70;;;11.30;;
20179;SDS011;10249;48.900;9.090;2023-03-12T04:21:53;11.47;;;11.07;;
20179;SDS011;10249;48.900;9.090;2023-03-12T04:24:20;11.50;;;11.10;;
20179;SDS011;10249;48.900;9.090;2023-03-12T04:26:49;11.53;;;11.13;;
20179;SDS011;10249;48.900;9.090;2023-03-12T04:29:16;11.50;;;11.10;;
20179;SDS011;10249;48.900;9.090;2023-03-12T04:31:43;12.27;;;11.87;;
20179;SDS011;10249;48.900;9.090;2023-03-12T04:34:11;11.07;;;10.67;;
20179;SDS011;10249;48.900;9.090;2023-03-12T04:36:38;11.17;;;10.77;;
20179;SDS011;10249;48.900;9.090;2023-03-12T04:39:05;11.10;;;10.70;;
20179;SDS011;10249;48.900;9.090;2023-03-12T04:41:32;11.40;;;11.00;;
20179;SDS011;10249;48.900;9.090;2023-03-12T04:44:01;11.50;;;11.10;;
20179;SDS011;10249;48.900;9.090;2023-03-12T04:46:28;11.67;;;11.27;;
20179;SDS011;10249;48.900;9.090;2023-03-12T04:48:55;11.73;;;11.33;;
20179;SDS011;10249;48.900;9.090;2023-03-12T04:51:26;11.70;;;11.30;;
20179;SDS011;10249;48.900;9.090;2023-03-12T04:53:53;11.60;;;11.20;;
20179;SDS011;10249;48.900;9.090;2023-03-12T04:56:20;11.67;;;11.27;;
20179;SDS011;10249;48.900;9.090;2023-03-12T04:58:48;12.10;;;11.70;;
20179;SDS011;10249;48.900;9.090;2023-03-12T05:01:20;11.97;;;11.57;;
20179;SDS011;10249;48.900;9.090;2023-03-12T05:03:48;11.77;;;11.37;;
20179;SDS011;10249;48.900;9.090;2023-03-12T05:06:15;11.77;;;11.37;;
20179;SDS011;10249;48.900;9.090;2023-03-12T05:08:42;12.00;;;11.60;;
20179;SDS011;10249;48.900;9.090;2023-03-12T05:11:09;11.90;;;11.50;;
20179;SDS011;10249;48.900;9.090;2023-03-12T05:13:36;11.80;;;11.40;;
20179;SDS011;10249;48.900;9.090;2023-03-12T05:16:04;12.37;;;11.87;;
20179;SDS011;10249;48.900;9.090;2023-03-12T05:18:32;12.00;;;11.60;;
20179;SDS011;10249;48.900;9.090;2023-03-12T05:21:00;12.53;;;12.07;;
20179;SDS011;10249;48.900;9.090;2023-03-12T05:23:27;11.93;;;11.53;;
20179;SDS011;10249;48.900;9.090;2023-03-12T05:25:55;12.50;;;12.00;;
20179;SDS011;10249;48.900;9.090;2023-03-12T05:28:22;12.40;;;11.90;;
20179;SDS011;10249;48.900;9.090;2023-03-12T05:30:52;12.70;;;12.20;;
20179;SDS011;10249;48.900;9.090;2023-03-12T05:33:19;12.27;;;11.80;;
20179;SDS011;10249;48.900;9.090;2023-03-12T05:35:48;12.70;;;12.20;;
20179;SDS011;10249;48.900;9.090;2023-03-12T05:38:15;12.33;;;11.83;;
20179;SDS011;10249;48.900;9.090;2023-03-12T05:40:42;12.30;;;11.80;;
20179;SDS011;10249;48.900;9.090;2023-03-12T05:43:09;12.40;;;11.90;;
20179;SDS011;10249;48.900;9.090;2023-03-12T05:45:36;12.10;;;11.70;;
20179;SDS011;10249;48.900;9.090;2023-03-12T05:48:03;11.87;;;11.47;;
20179;SDS011;10249;48.900;9.090;2023-03-12T05:50:30;12.53;;;12.13;;
20179;SDS011;10249;48.900;9.090;2023-03-12T05:52:59;11.90;;;11.50;;
20179;SDS011;10249;48.900;9.090;2023-03-12T05:55:26;12.10;;;11.70;;
20179;SDS011;10249;48.900;9.090;2023-03-12T05:57:53;11.97;;;11.57;;
20179;SDS011;10249;48.900;9.090;2023-03-12T06:00:20;11.83;;;11.43;;
20179;SDS011;10249;48.900;9.090;2023-03-12T06:02:48;11.77;;;11.37;;
20179;SDS011;10249;48.900;9.090;2023-03-12T06:05:15;11.77;;;11.37;;
20179;SDS011;10249;48.900;9.090;2023-03-12T06:07:42;11.40;;;11.00;;
20179;SDS011;10249;48.900;9.090;2023-03-12T06:10:10;11.70;;;11.30;;
20179;SDS011;10249;48.900;9.090;2023-03-12T06:12:37;11.33;;;10.93;;
20179;SDS011;10249;48.900;9.090;2023-03-12T06:15:05;11.70;;;11.30;;
20179;SDS011;10249;48.900;9.090;2023-03-12T06:17:32;11.60;;;11.20;;
20179;SDS011;10249;48.900;9.090;2023-03-12T06:19:59;11.70;;;11.30;;
20179;SDS011;10249;48.900;9.090;2023-03-12T06:22:26;11.80;;;11.40;;
20179;SDS011;10249;48.900;9.090;2023-03-12T06:24:54;12.00;;;11.60;;
20179;SDS011;10249;48.900;9.090;2023-03-12T06:27:22;11.60;;;11.20;;
20179;SDS011;10249;48.900;9.090;2023-03-12T06:29:49;11.80;;;11.40;;
20179;SDS011;10249;48.900;9.090;2023-03-12T06:32:16;11.57;;;11.17;;
20179;SDS011;10249;48.900;9.090;2023-03-12T06:34:43;12.00;;;11.60;;
20179;SDS011;10249;48.900;9.090;2023-03-12T06:37:10;11.63;;;11.23;;
20179;SDS011;10249;48.900;9.090;2023-03-12T06:39:37;11.80;;;11.40;;
20179;SDS011;10249;48.900;9.090;2023-03-12T06:42:05;11.80;;;11.40;;
20179;SDS011;10249;48.900;9.090;2023-03-12T06:44:33;12.03;;;11.63;;
20179;SDS011;10249;48.900;9.090;2023-03-12T06:47:00;12.10;;;11.70;;
20179;SDS011;10249;48.900;9.090;2023-03-12T06:49:27;11.80;;;11.40;;
20179;SDS011;10249;48.900;9.090;2023-03-12T06:51:57;11.60;;;11.20;;
20179;SDS011;10249;48.900;9.090;2023-03-12T06:54:24;11.50;;;11.10;;
20179;SDS011;10249;48.900;9.090;2023-03-12T06:56:51;11.80;;;11.40;;
20179;SDS011;10249;48.900;9.090;2023-03-12T06:59:18;13.60;;;12.90;;
20179;SDS011;10249;48.900;9.090;2023-03-12T07:01:47;11.70;;;11.30;;
20179;SDS011;10249;48.900;9.090;2023-03-12T07:04:14;11.67;;;11.27;;
20179;SDS011;10249;48.900;9.090;2023-03-12T07:06:41;12.03;;;11.63;;
20179;SDS011;10249;48.900;9.090;2023-03-12T07:09:14;11.53;;;11.13;;
20179;SDS011;10249;48.900;9.090;2023-03-12T07:11:41;11.40;;;11.00;;
20179;SDS011;10249;48.900;9.090;2023-03-12T07:14:08;11.47;;;11.07;;
20179;SDS011;10249;48.900;9.090;2023-03-12T07:16:35;11.40;;;11.00;;
20179;SDS011;10249;48.900;9.090;2023-03-12T07:19:04;11.23;;;10.83;;
20179;SDS011;10249;48.900;9.090;2023-03-12T07:21:31;12.33;;;11.93;;
20179;SDS011;10249;48.900;9.090;2023-03-12T07:23:58;11.27;;;10.87;;
20179;SDS011;10249;48.900;9.090;2023-03-12T07:26:30;11.10;;;10.70;;
20179;SDS011;10249;48.900;9.090;2023-03-12T07:28:57;11.13;;;10.73;;
20179;SDS011;10249;48.900;9.090;2023-03-12T07:31:24;11.40;;;11.00;;
20179;SDS011;10249;48.900;9.090;2023-03-12T07:33:51;11.47;;;11.07;;
20179;SDS011;10249;48.900;9.090;2023-03-12T07:36:20;10.60;;;10.20;;
20179;SDS011;10249;48.900;9.090;2023-03-12T07:38:47;10.53;;;10.20;;
20179;SDS011;10249;48.900;9.090;2023-03-12T07:41:14;10.70;;;10.30;;
20179;SDS011;10249;48.900;9.090;2023-03-12T07:43:41;10.57;;;10.20;;
20179;SDS011;10249;48.900;9.090;2023-03-12T07:46:08;10.53;;;10.23;;
20179;SDS011;10249;48.900;9.090;2023-03-12T07:48:35;10.70;;;10.30;;
20179;SDS011;10249;48.900;9.090;2023-03-12T07:51:02;10.90;;;10.50;;
20179;SDS011;10249;48.900;9.090;2023-03-12T07:53:31;10.43;;;10.13;;
20179;SDS011;10249;48.900;9.090;2023-03-12T07:55:58;11.00;;;10.60;;
20179;SDS011;10249;48.900;9.090;2023-03-12T07:58:25;10.30;;;10.00;;
20179;SDS011;10249;48.900;9.090;2023-03-12T08:00:53;10.50;;;10.20;;
20179;SDS011;10249;48.900;9.090;2023-03-12T08:03:20;10.30;;;10.00;;
20179;SDS011;10249;48.900;9.090;2023-03-12T08:05:54;10.10;;;9.80;;
20179;SDS011;10249;48.900;9.090;2023-03-12T08:08:21;10.30;;;10.00;;
20179;SDS011;10249;48.900;9.090;2023-03-12T08:10:50;9.93;;;9.63;;
20179;SDS011;10249;48.900;9.090;2023-03-12T08:13:17;10.03;;;9.73;;
20179;SDS011;10249;48.900;9.090;2023-03-12T08:15:44;9.90;;;9.60;;
20179;SDS011;10249;48.900;9.090;2023-03-12T08:18:11;10.27;;;9.97;;
20179;SDS011;10249;48.900;9.090;2023-03-12T08:20:38;10.20;;;9.90;;
20179;SDS011;10249;48.900;9.090;2023-03-12T08:23:05;9.93;;;9.63;;
20179;SDS011;10249;48.900;9.090;2023-03-12T08:25:32;9.87;;;9.57;;
20179;SDS011;10249;48.900;9.090;2023-03-12T08:28:02;9.80;;;9.50;;
20179;SDS011;10249;48.900;9.090;2023-03-12T08:30:29;9.90;;;9.60;;
20179;SDS011;10249;48.900;9.090;2023-03-12T08:32:56;9.50;;;9.20;;
20179;SDS011;10249;48.900;9.090;2023-03-12T08:35:24;9.33;;;9.03;;
20179;SDS011;10249;48.900;9.090;2023-03-12T08:37:51;9.20;;;8.90;;
20179;SDS011;10249;48.900;9.090;2023-03-12T08:40:18;9.50;;;9.20;;
20179;SDS011;10249;48.900;9.090;2023-03-12T08:42:45;9.13;;;8.83;;
20179;SDS011;10249;48.900;9.090;2023-03-12T08:45:14;11.77;;;11.37;;
20179;SDS011;10249;48.900;9.090;2023-03-12T08:47:41;9.27;;;8.97;;
20179;SDS011;10249;48.900;9.090;2023-03-12T08:50:09;9.50;;;9.20;;
20179;SDS011;10249;48.900;9.090;2023-03-12T08:52:37;9.43;;;9.13;;
20179;SDS011;10249;48.900;9.090;2023-03-12T08:55:04;9.60;;;9.30;;
20179;SDS011;10249;48.900;9.090;2023-03-12T08:57:31;9.73;;;9.43;;
20179;SDS011;10249;48.900;9.090;2023-03-12T08:59:58;9.90;;;9.60;;
20179;SDS011;10249;48.900;9.090;2023-03-12T09:02:27;9.53;;;9.23;;
20179;SDS011;10249;48.900;9.090;2023-03-12T09:04:54;9.93;;;9.63;;
20179;SDS011;10249;48.900;9.090;2023-03-12T09:07:21;10.03;;;9.73;;
20179;SDS011;10249;48.900;9.090;2023-03-12T09:09:48;10.33;;;10.03;;
20179;SDS011;10249;48.900;9.090;2023-03-12T09:12:15;9.77;;;9.47;;
20179;SDS011;10249;48.900;9.090;2023-03-12T09:14:42;9.80;;;9.50;;
20179;SDS011;10249;48.900;9.090;2023-03-12T09:17:09;10.23;;;9.93;;
20179;SDS011;10249;48.900;9.090;2023-03-12T09:19:38;10.00;;;9.70;;
20179;SDS011;10249;48.900;9.090;2023-03-12T09:22:05;10.07;;;9.77;;
20179;SDS011;10249;48.900;9.090;2023-03-12T09:24:32;10.20;;;9.90;;
20179;SDS011;10249;48.900;9.090;2023-03-12T09:26:59;10.27;;;9.97;;
20179;SDS011;10249;48.900;9.090;2023-03-12T09:29:28;10.10;;;9.80;;
20179;SDS011;10249;48.900;9.090;2023-03-12T09:31:55;10.30;;;10.00;;
20179;SDS011;10249;48.900;9.090;2023-03-12T09:34:22;10.17;;;9.87;;
20179;SDS011;10249;48.900;9.090;2023-03-12T09:36:51;10.47;;;10.17;;
20179;SDS011;10249;48.900;9.090;2023-03-12T09:39:18;10.43;;;10.13;;
20179;SDS011;10249;48.900;9.090;2023-03-12T09:41:46;11.00;;;10.60;;
20179;SDS011;10249;48.900;9.090;2023-03-12T09:44:15;10.67;;;10.27;;
20179;SDS011;10249;48.900;9.090;2023-03-12T09:46:46;10.70;;;10.30;;
20179;SDS011;10249;48.900;9.090;2023-03-12T09:49:15;10.67;;;10.30;;
20179;SDS011;10249;48.900;9.090;2023-03-12T09:51:44;12.37;;;11.97;;
20179;SDS011;10249;48.900;9.090;2023-03-12T09:54:17;11.10;;;10.70;;
20179;SDS011;10249;48.900;9.090;2023-03-12T09:56:48;10.90;;;10.50;;
20179;SDS011;10249;48.900;9.090;2023-03-12T09:59:16;11.10;;;10.70;;
20179;SDS011;10249;48.900;9.090;2023-03-12T10:01:46;11.10;;;10.70;;
20179;SDS011;10249;48.900;9.090;2023-03-12T10:04:22;11.10;;;10.70;;
20179;SDS011;10249;48.900;9.090;2023-03-12T10:06:51;11.10;;;10.70;;
20179;SDS011;10249;48.900;9.090;2023-03-12T10:09:25;11.40;;;11.00;;
20179;SDS011;10249;48.900;9.090;2023-03-12T10:11:58;11.03;;;10.63;;
20179;SDS011;10249;48.900;9.090;2023-03-12T10:14:31;11.07;;;10.67;;
20179;SDS011;10249;48.900;9.090;2023-03-12T10:17:07;10.90;;;10.50;;
20179;SDS011;10249;48.900;9.090;2023-03-12T10:19:45;10.83;;;10.43;;
20179;SDS011;10249;48.900;9.090;2023-03-12T10:22:18;9.30;;;9.00;;
20179;SDS011;10249;48.900;9.090;2023-03-12T10:24:53;8.40;;;8.10;;
20179;SDS011;10249;48.900;9.090;2023-03-12T10:27:22;8.40;;;8.10;;
20179;SDS011;10249;48.900;9.090;2023-03-12T10:29:51;6.53;;;6.33;;
20179;SDS011;10249;48.900;9.090;2023-03-12T10:32:20;7.77;;;7.37;;
20179;SDS011;10249;48.900;9.090;2023-03-12T10:34:49;8.23;;;7.70;;
20179;SDS011;10249;48.900;9.090;2023-03-12T10:37:18;4.90;;;4.80;;
20179;SDS011;10249;48.900;9.090;2023-03-12T10:39:46;7.73;;;7.00;;
20179;SDS011;10249;48.900;9.090;2023-03-12T10:42:16;8.27;;;7.73;;
20179;SDS011;10249;48.900;9.090;2023-03-12T10:44:44;9.33;;;8.70;;
20179;SDS011;10249;48.900;9.090;2023-03-12T10:47:24;5.90;;;5.70;;
20179;SDS011;10249;48.900;9.090;2023-03-12T10:49:53;6.00;;;5.80;;
20179;SDS011;10249;48.900;9.090;2023-03-12T10:52:21;7.37;;;6.97;;
20179;SDS011;10249;48.900;9.090;2023-03-12T10:54:48;7.70;;;7.30;;
20179;SDS011;10249;48.900;9.090;2023-03-12T10:57:17;7.20;;;6.80;;
20179;SDS011;10249;48.900;9.090;2023-03-12T10:59:46;5.77;;;5.47;;
20179;SDS011;10249;48.900;9.090;2023-03-12T11:02:30;9.67;;;8.97;;
20179;SDS011;10249;48.900;9.090;2023-03-12T11:04:58;10.53;;;9.67;;
20179;SDS011;10249;48.900;9.090;2023-03-12T11:07:27;9.43;;;8.70;;
20179;SDS011;10249;48.900;9.090;2023-03-12T11:10:11;11.13;;;9.13;;
20179;SDS011;10249;48.900;9.090;2023-03-12T11:12:49;8.50;;;7.83;;
20179;SDS011;10249;48.900;9.090;2023-03-12T11:15:18;9.43;;;8.70;;
20179;SDS011;10249;48.900;9.090;2023-03-12T11:17:46;9.10;;;8.27;;
20179;SDS011;10249;48.900;9.090;2023-03-12T11:20:17;7.93;;;7.43;;
20179;SDS011;10249;48.900;9.090;2023-03-12T11:22:44;7.63;;;7.10;;
20179;SDS011;10249;48.900;9.090;2023-03-12T11:25:18;7.40;;;6.80;;
20179;SDS011;10249;48.900;9.090;2023-03-12T11:27:48;8.00;;;7.43;;
20179;SDS011;10249;48.900;9.090;2023-03-12T11:32:44;8.73;;;8.13;;
20179;SDS011;10249;48.900;9.090;2023-03-12T11:35:12;10.50;;;9.47;;
20179;SDS011;10249;48.900;9.090;2023-03-12T11:37:42;11.10;;;10.17;;
20179;SDS011;10249;48.900;9.090;2023-03-12T11:40:18;9.73;;;8.80;;
20179;SDS011;10249;48.900;9.090;2023-03-12T11:45:32;7.93;;;7.50;;
20179;SDS011;10249;48.900;9.090;2023-03-12T11:48:04;9.43;;;8.50;;
20179;SDS011;10249;48.900;9.090;2023-03-12T11:50:36;9.97;;;9.10;;
20179;SDS011;10249;48.900;9.090;2023-03-12T11:53:22;7.77;;;7.17;;
20179;SDS011;10249;48.900;9.090;2023-03-12T11:55:55;5.23;;;5.03;;
20179;SDS011;10249;48.900;9.090;2023-03-12T11:58:29;6.70;;;6.10;;
20179;SDS011;10249;48.900;9.090;2023-03-12T12:01:03;6.60;;;6.10;;
20179;SDS011;10249;48.900;9.090;2023-03-12T12:03:38;6.57;;;6.30;;
20179;SDS011;10249;48.900;9.090;2023-03-12T12:06:11;8.00;;;7.57;;
20179;SDS011;10249;48.900;9.090;2023-03-12T12:08:44;9.97;;;9.43;;
20179;SDS011;10249;48.900;9.090;2023-03-12T12:11:15;10.43;;;9.93;;
20179;SDS011;10249;48.900;9.090;2023-03-12T12:13:48;9.73;;;9.23;;
20179;SDS011;10249;48.900;9.090;2023-03-12T12:16:28;10.60;;;10.10;;
20179;SDS011;10249;48.900;9.090;2023-03-12T12:19:03;10.63;;;10.03;;
20179;SDS011;10249;48.900;9.090;2023-03-12T12:21:35;10.87;;;10.13;;
20179;SDS011;10249;48.900;9.090;2023-03-12T12:24:11;10.90;;;10.10;;
20179;SDS011;10249;48.900;9.090;2023-03-12T12:26:43;10.90;;;10.23;;
20179;SDS011;10249;48.900;9.090;2023-03-12T12:29:24;10.60;;;10.07;;
20179;SDS011;10249;48.900;9.090;2023-03-12T12:31:57;10.80;;;10.10;;
20179;SDS011;10249;48.900;9.090;2023-03-12T12:34:28;11.53;;;10.73;;
20179;SDS011;10249;48.900;9.090;2023-03-12T12:37:03;11.20;;;10.50;;
20179;SDS011;10249;48.900;9.090;2023-03-12T12:39:36;11.63;;;10.77;;
20179;SDS011;10249;48.900;9.090;2023-03-12T12:42:07;10.90;;;10.30;;
20179;SDS011;10249;48.900;9.090;2023-03-12T12:44:39;10.63;;;9.93;;
20179;SDS011;10249;48.900;9.090;2023-03-12T12:47:10;11.07;;;10.37;;
20179;SDS011;10249;48.900;9.090;2023-03-12T12:49:42;11.77;;;11.07;;
20179;SDS011;10249;48.900;9.090;2023-03-12T12:52:11;10.27;;;9.77;;
20179;SDS011;10249;48.900;9.090;2023-03-12T12:54:40;10.00;;;9.47;;
20179;SDS011;10249;48.900;9.090;2023-03-12T12:57:10;11.03;;;10.23;;
20179;SDS011;10249;48.900;9.090;2023-03-12T12:59:39;9.73;;;9.23;;
20179;SDS011;10249;48.900;9.090;2023-03-12T13:02:14;9.57;;;9.07;;
20179;SDS011;10249;48.900;9.090;2023-03-12T13:04:42;10.30;;;9.60;;
20179;SDS011;10249;48.900;9.090;2023-03-12T13:07:28;11.03;;;10.23;;
20179;SDS011;10249;48.900;9.090;2023-03-12T13:09:56;10.80;;;10.10;;
20179;SDS011;10249;48.900;9.090;2023-03-12T13:12:24;9.93;;;9.40;;
20179;SDS011;10249;48.900;9.090;2023-03-12T13:14:53;12.83;;;9.50;;
20179;SDS011;10249;48.900;9.090;2023-03-12T13:17:27;9.57;;;9.07;;
20179;SDS011;10249;48.900;9.090;2023-03-12T13:19:58;9.30;;;8.90;;
20179;SDS011;10249;48.900;9.090;2023-03-12T13:22:29;9.83;;;9.27;;
20179;SDS011;10249;48.900;9.090;2023-03-12T13:25:02;9.53;;;9.13;;
20179;SDS011;10249;48.900;9.090;2023-03-12T13:27:35;10.63;;;10.13;;
20179;SDS011;10249;48.900;9.090;2023-03-12T13:33:05;12.07;;;11.13;;
20179;SDS011;10249;48.900;9.090;2023-03-12T13:35:36;11.63;;;11.03;;
20179;SDS011;10249;48.900;9.090;2023-03-12T13:38:04;12.70;;;12.00;;
20179;SDS011;10249;48.900;9.090;2023-03-12T13:40:36;17.60;;;14.13;;
20179;SDS011;10249;48.900;9.090;2023-03-12T13:43:07;12.57;;;11.87;;
20179;SDS011;10249;48.900;9.090;2023-03-12T13:45:38;12.83;;;11.77;;
20179;SDS011;10249;48.900;9.090;2023-03-12T13:48:12;17.70;;;16.00;;
20179;SDS011;10249;48.900;9.090;2023-03-12T13:50:40;29.10;;;22.73;;
20179;SDS011;10249;48.900;9.090;2023-03-12T13:53:18;13.53;;;12.60;;
20179;SDS011;10249;48.900;9.090;2023-03-12T13:55:48;12.23;;;11.63;;
20179;SDS011;10249;48.900;9.090;2023-03-12T13:58:16;11.87;;;11.40;;
20179;SDS011;10249;48.900;9.090;2023-03-12T14:00:47;11.07;;;10.67;;
20179;SDS011;10249;48.900;9.090;2023-03-12T14:03:19;12.33;;;11.43;;
20179;SDS011;10249;48.900;9.090;2023-03-12T14:05:49;11.90;;;11.10;;
20179;SDS011;10249;48.900;9.090;2023-03-12T14:08:28;11.23;;;10.37;;
20179;SDS011;10249;48.900;9.090;2023-03-12T14:11:02;11.57;;;10.77;;
20179;SDS011;10249;48.900;9.090;2023-03-12T14:13:37;12.27;;;11.17;;
20179;SDS011;10249;48.900;9.090;2023-03-12T14:16:06;11.13;;;10.43;;
20179;SDS011;10249;48.900;9.090;2023-03-12T14:18:36;11.10;;;10.10;;
20179;SDS011;10249;48.900;9.090;2023-03-12T14:21:06;10.27;;;9.67;;
20179;SDS011;10249;48.900;9.090;2023-03-12T14:23:34;10.17;;;9.57;;
20179;SDS011;10249;48.900;9.090;2023-03-12T14:26:03;9.87;;;9.47;;
20179;SDS011;10249;48.900;9.090;2023-03-12T14:28:32;11.03;;;10.40;;
20179;SDS011;10249;48.900;9.090;2023-03-12T14:31:05;11.73;;;11.03;;
20179;SDS011;10249;48.900;9.090;2023-03-12T14:33:34;12.57;;;11.77;;
20179;SDS011;10249;48.900;9.090;2023-03-12T14:36:04;11.30;;;10.50;;
20179;SDS011;10249;48.900;9.090;2023-03-12T14:38:34;12.77;;;11.73;;
20179;SDS011;10249;48.900;9.090;2023-03-12T14:41:03;11.17;;;10.67;;
20179;SDS011;10249;48.900;9.090;2023-03-12T14:43:37;13.23;;;12.10;;
20179;SDS011;10249;48.900;9.090;2023-03-12T14:46:05;11.97;;;11.47;;
20179;SDS011;10249;48.900;9.090;2023-03-12T14:48:39;12.47;;;11.70;;